createdAt,value
2023-05-01T00:01:43.518Z,97564.72
2023-05-01T00:04:11.268Z,97566.19
2023-05-01T00:06:39.066Z,97563.50
2023-05-01T00:09:07.134Z,97565.38
2023-05-01T00:11:37.353Z,97559.19
2023-05-01T00:14:04.955Z,97561.22
2023-05-01T00:16:32.495Z,97555.41
2023-05-01T00:19:00.041Z,97556.59
2023-05-01T00:21:28.311Z,97545.88
2023-05-01T00:23:55.855Z,97549.19
2023-05-01T00:26:26.183Z,97543.84
2023-05-01T00:28:54.119Z,97545.50
2023-05-01T00:31:21.671Z,97542.00
2023-05-01T00:33:49.260Z,97532.66
2023-05-01T00:36:17.006Z,97532.03
2023-05-01T00:38:45.670Z,97529.53
2023-05-01T00:41:13.318Z,97526.84
2023-05-01T00:43:40.826Z,97521.31
2023-05-01T00:46:08.798Z,97522.31
2023-05-01T00:48:36.687Z,97515.28
2023-05-01T00:51:07.429Z,97516.31
2023-05-01T00:53:34.982Z,97518.34
2023-05-01T00:56:02.629Z,97511.53
2023-05-01T00:58:30.126Z,97509.03
2023-05-01T01:00:58.021Z,97501.66
2023-05-01T01:03:25.613Z,97519.38
2023-05-01T01:06:21.679Z,97507.19
2023-05-01T01:09:09.944Z,97504.50
2023-05-01T01:12:02.024Z,97506.56
2023-05-01T01:14:47.729Z,97494.56
2023-05-01T01:17:32.119Z,97494.56
2023-05-01T01:20:44.181Z,97490.22
2023-05-01T01:23:35.717Z,97486.72
2023-05-01T01:26:07.089Z,97493.09
2023-05-01T01:29:17.131Z,97488.94
2023-05-01T01:32:07.648Z,97484.63
2023-05-01T01:34:44.829Z,97481.94
2023-05-01T01:37:20.941Z,97479.25
2023-05-01T01:40:11.469Z,97478.41
2023-05-01T01:43:03.761Z,97478.41
2023-05-01T01:45:42.827Z,97477.41
2023-05-01T01:48:17.773Z,97480.06
2023-05-01T01:50:47.535Z,97475.34
2023-05-01T01:53:19.624Z,97467.16
2023-05-01T01:55:50.134Z,97473.13
2023-05-01T01:58:20.789Z,97475.81
2023-05-01T02:00:49.679Z,97471.28
2023-05-01T02:03:19.705Z,97464.69
2023-05-01T02:05:50.328Z,97461.66
2023-05-01T02:08:18.651Z,97462.13
2023-05-01T02:10:48.122Z,97455.94
2023-05-01T02:13:19.560Z,97457.38
2023-05-01T02:15:48.755Z,97453.69
2023-05-01T02:18:16.694Z,97451.66
2023-05-01T02:20:45.290Z,97463.19
2023-05-01T02:23:13.679Z,97452.03
2023-05-01T02:25:42.517Z,97449.53
2023-05-01T02:28:14.277Z,97453.91
2023-05-01T02:30:42.585Z,97452.84
2023-05-01T02:33:10.837Z,97452.03
2023-05-01T02:35:49.505Z,97442.97
2023-05-01T02:38:19.390Z,97444.00
2023-05-01T02:40:58.262Z,97446.03
2023-05-01T02:43:28.719Z,97445.22
2023-05-01T02:45:59.705Z,97438.38
2023-05-01T02:48:30.547Z,97438.38
2023-05-01T02:50:59.957Z,97434.06
2023-05-01T02:53:27.482Z,97428.88
2023-05-01T02:56:04.874Z,97429.06
2023-05-01T02:58:34.060Z,97432.16
2023-05-01T03:01:01.776Z,97429.84
2023-05-01T03:03:29.358Z,97426.34
2023-05-01T03:05:57.463Z,97427.53
2023-05-01T03:08:25.109Z,97429.38
2023-05-01T03:10:52.607Z,97431.41
2023-05-01T03:13:20.244Z,97429.09
2023-05-01T03:15:48.717Z,97429.97
2023-05-01T03:18:16.194Z,97419.44
2023-05-01T03:20:53.453Z,97419.81
2023-05-01T03:23:21.233Z,97420.66
2023-05-01T03:25:49.003Z,97424.53
2023-05-01T03:28:16.564Z,97423.69
2023-05-01T03:30:47.279Z,97418.34
2023-05-01T03:33:15.099Z,97420.84
2023-05-01T03:35:42.726Z,97416.94
2023-05-01T03:38:10.796Z,97414.09
2023-05-01T03:40:57.999Z,97418.41
2023-05-01T03:43:43.957Z,97409.38
2023-05-01T03:46:37.769Z,97406.50
2023-05-01T03:49:07.507Z,97410.81
2023-05-01T03:51:41.625Z,97405.47
2023-05-01T03:54:09.444Z,97404.66
2023-05-01T03:56:52.755Z,97404.06
2023-05-01T03:59:21.387Z,97403.41
2023-05-01T04:01:49.523Z,97400.56
2023-05-01T04:04:18.094Z,97396.03
2023-05-01T04:06:51.643Z,97400.38
2023-05-01T04:09:19.460Z,97408.41
2023-05-01T04:11:47.115Z,97407.59
2023-05-01T04:14:14.657Z,97402.88
2023-05-01T04:16:42.293Z,97403.69
2023-05-01T04:19:10.646Z,97401.84
2023-05-01T04:21:42.626Z,97398.97
2023-05-01T04:24:10.148Z,97398.16
2023-05-01T04:26:38.987Z,97397.97
2023-05-01T04:29:07.179Z,97392.78
2023-05-01T04:31:35.134Z,97393.63
2023-05-01T04:34:02.665Z,97391.13
2023-05-01T04:36:32.806Z,97391.97
2023-05-01T04:39:01.197Z,97399.78
2023-05-01T04:41:29.840Z,97398.34
2023-05-01T04:43:57.448Z,97399.16
2023-05-01T04:46:25.517Z,97397.50
2023-05-01T04:48:54.202Z,97401.66
2023-05-01T04:51:22.438Z,97394.44
2023-05-01T04:53:50.941Z,97401.28
2023-05-01T04:56:23.146Z,97403.09
2023-05-01T04:58:54.784Z,97396.75
2023-05-01T05:01:25.123Z,97400.88
2023-05-01T05:03:53.282Z,97400.69
2023-05-01T05:06:21.555Z,97405.03
2023-05-01T05:08:51.868Z,97400.31
2023-05-01T05:11:19.764Z,97403.81
2023-05-01T05:13:57.884Z,97402.41
2023-05-01T05:16:25.682Z,97403.44
2023-05-01T05:18:57.251Z,97404.28
2023-05-01T05:21:26.781Z,97405.56
2023-05-01T05:23:56.558Z,97404.53
2023-05-01T05:26:24.880Z,97396.31
2023-05-01T05:28:52.700Z,97402.31
2023-05-01T05:31:20.586Z,97405.84
2023-05-01T05:33:48.165Z,97407.47
2023-05-01T05:36:17.205Z,97407.66
2023-05-01T05:38:45.744Z,97404.78
2023-05-01T05:41:17.663Z,97412.47
2023-05-01T05:43:45.864Z,97406.88
2023-05-01T05:46:13.517Z,97401.34
2023-05-01T05:48:42.438Z,97411.88
2023-05-01T05:51:10.684Z,97403.84
2023-05-01T05:53:38.478Z,97403.84
2023-05-01T05:56:06.665Z,97400.34
2023-05-01T05:58:34.679Z,97405.28
2023-05-01T06:01:02.299Z,97403.25
2023-05-01T06:03:30.036Z,97408.22
2023-05-01T06:06:01.931Z,97415.88
2023-05-01T06:08:29.535Z,97411.34
2023-05-01T06:10:58.846Z,97411.78
2023-05-01T06:13:27.854Z,97414.47
2023-05-01T06:15:55.469Z,97409.94
2023-05-01T06:18:23.258Z,97418.59
2023-05-01T06:20:51.073Z,97408.34
2023-05-01T06:23:18.857Z,97418.47
2023-05-01T06:26:04.886Z,97414.16
2023-05-01T06:28:32.582Z,97410.94
2023-05-01T06:31:00.112Z,97405.78
2023-05-01T06:33:28.297Z,97406.84
2023-05-01T06:36:16.686Z,97413.66
2023-05-01T06:38:48.570Z,97411.25
2023-05-01T06:41:16.981Z,97412.31
2023-05-01T06:43:45.780Z,97416.25
2023-05-01T06:46:13.442Z,97409.47
2023-05-01T06:48:41.448Z,97415.69
2023-05-01T06:51:08.982Z,97414.72
2023-05-01T06:53:37.480Z,97422.59
2023-05-01T06:56:05.349Z,97418.28
2023-05-01T06:58:33.064Z,97425.94
2023-05-01T07:01:00.935Z,97427.78
2023-05-01T07:03:28.660Z,97429.09
2023-05-01T07:05:56.320Z,97433.03
2023-05-01T07:08:24.210Z,97429.94
2023-05-01T07:10:51.798Z,97433.06
2023-05-01T07:13:19.652Z,97433.91
2023-05-01T07:15:47.459Z,97433.09
2023-05-01T07:18:15.036Z,97433.34
2023-05-01T07:20:42.784Z,97427.34
2023-05-01T07:23:10.305Z,97433.16
2023-05-01T07:25:37.867Z,97426.53
2023-05-01T07:28:05.425Z,97420.97
2023-05-01T07:30:33.334Z,97428.00
2023-05-01T07:33:00.880Z,97425.97
2023-05-01T07:35:28.687Z,97420.16
2023-05-01T07:37:56.159Z,97424.09
2023-05-01T07:40:23.685Z,97423.91
2023-05-01T07:42:53.842Z,97424.56
2023-05-01T07:45:22.073Z,97423.34
2023-05-01T07:47:49.970Z,97424.16
2023-05-01T07:50:17.616Z,97420.66
2023-05-01T07:52:45.340Z,97408.66
2023-05-01T07:55:12.933Z,97406.59
2023-05-01T07:57:40.639Z,97401.66
2023-05-01T08:01:00.517Z,97403.53
2023-05-01T08:03:29.953Z,97408.91
2023-05-01T08:05:58.094Z,97411.59
2023-05-01T08:08:25.699Z,97413.06
2023-05-01T08:10:53.382Z,97404.34
2023-05-01T08:13:20.931Z,97406.00
2023-05-01T08:15:48.778Z,97417.16
2023-05-01T08:18:20.309Z,97405.16
2023-05-01T08:20:49.059Z,97414.25
2023-05-01T08:23:17.392Z,97408.88
2023-05-01T08:25:51.162Z,97413.41
2023-05-01T08:28:21.289Z,97410.69
2023-05-01T08:30:51.793Z,97410.69
2023-05-01T08:33:19.504Z,97407.34
2023-05-01T08:35:47.071Z,97406.94
2023-05-01T08:38:14.728Z,97410.66
2023-05-01T08:40:51.178Z,97406.31
2023-05-01T08:43:19.164Z,97395.94
2023-05-01T08:45:48.908Z,97405.88
2023-05-01T08:48:18.564Z,97402.94
2023-05-01T08:50:47.845Z,97408.72
2023-05-01T08:53:22.162Z,97408.06
2023-05-01T08:55:52.090Z,97401.41
2023-05-01T08:58:20.793Z,97409.47
2023-05-01T09:00:48.790Z,97400.78
2023-05-01T09:03:17.948Z,97399.09
2023-05-01T09:05:47.008Z,97406.75
2023-05-01T09:08:14.979Z,97404.03
2023-05-01T09:10:48.042Z,97405.72
2023-05-01T09:13:15.723Z,97412.34
2023-05-01T09:15:43.243Z,97408.00
2023-05-01T09:18:11.910Z,97406.53
2023-05-01T09:20:40.280Z,97409.78
2023-05-01T09:23:08.708Z,97409.31
2023-05-01T09:25:36.255Z,97403.69
2023-05-01T09:28:06.888Z,97407.59
2023-05-01T09:30:38.251Z,97412.09
2023-05-01T09:33:06.441Z,97407.66
2023-05-01T09:35:55.511Z,97407.16
2023-05-01T09:38:29.008Z,97407.78
2023-05-01T09:41:05.163Z,97407.16
2023-05-01T09:43:32.730Z,97409.66
2023-05-01T09:46:09.679Z,97405.94
2023-05-01T09:48:37.972Z,97408.81
2023-05-01T09:51:33.055Z,97404.19
2023-05-01T09:54:04.942Z,97408.66
2023-05-01T09:56:34.354Z,97416.69
2023-05-01T09:59:21.410Z,97417.06
2023-05-01T10:01:50.524Z,97413.69
2023-05-01T10:04:29.494Z,97418.88
2023-05-01T10:06:57.189Z,97419.69
2023-05-01T10:09:30.806Z,97418.06
2023-05-01T10:11:59.002Z,97422.72
2023-05-01T10:14:28.146Z,97416.47
2023-05-01T10:16:59.206Z,97422.34
2023-05-01T10:19:26.862Z,97412.56
2023-05-01T10:21:54.784Z,97421.84
2023-05-01T10:24:22.520Z,97419.81
2023-05-01T10:26:51.136Z,97413.88
2023-05-01T10:29:23.256Z,97413.19
2023-05-01T10:31:50.867Z,97415.34
2023-05-01T10:34:22.056Z,97426.38
2023-05-01T10:37:04.250Z,97419.19
2023-05-01T10:39:33.733Z,97420.47
2023-05-01T10:42:05.468Z,97416.66
2023-05-01T10:44:34.853Z,97413.56
2023-05-01T10:47:24.608Z,97417.09
2023-05-01T10:50:17.686Z,97405.88
2023-05-01T10:53:09.979Z,97406.22
2023-05-01T10:55:39.614Z,97414.97
2023-05-01T10:58:07.106Z,97416.25
2023-05-01T11:00:34.694Z,97412.38
2023-05-01T11:03:24.270Z,97412.66
2023-05-01T11:06:01.298Z,97411.09
2023-05-01T11:08:33.724Z,97409.91
2023-05-01T11:11:27.344Z,97405.53
2023-05-01T11:14:10.994Z,97397.31
2023-05-01T11:16:42.021Z,97392.81
2023-05-01T11:19:23.118Z,97393.94
2023-05-01T11:21:51.097Z,97400.38
2023-05-01T11:24:18.842Z,97398.34
2023-05-01T11:26:47.319Z,97388.69
2023-05-01T11:29:14.810Z,97386.88
2023-05-01T11:31:42.488Z,97390.69
2023-05-01T11:34:10.438Z,97385.47
2023-05-01T11:36:49.528Z,97378.41
2023-05-01T11:39:17.665Z,97382.31
2023-05-01T11:41:46.335Z,97383.22
2023-05-01T11:44:18.395Z,97388.97
2023-05-01T11:46:46.060Z,97390.72
2023-05-01T11:49:14.484Z,97386.00
2023-05-01T11:51:42.076Z,97383.81
2023-05-01T11:54:13.765Z,97383.91
2023-05-01T11:56:43.137Z,97388.16
2023-05-01T11:59:19.165Z,97379.22
2023-05-01T12:01:47.375Z,97386.69
2023-05-01T12:04:31.654Z,97386.00
2023-05-01T12:06:59.990Z,97391.66
2023-05-01T12:09:28.661Z,97383.88
2023-05-01T12:11:59.767Z,97379.16
2023-05-01T12:14:27.741Z,97370.00
2023-05-01T12:16:55.548Z,97372.50
2023-05-01T12:19:25.011Z,97373.34
2023-05-01T12:22:08.733Z,97374.16
2023-05-01T12:24:37.664Z,97378.34
2023-05-01T12:27:07.145Z,97372.41
2023-05-01T12:29:42.970Z,97386.16
2023-05-01T12:32:10.952Z,97384.50
2023-05-01T12:34:39.788Z,97379.69
2023-05-01T12:37:07.814Z,97389.69
2023-05-01T12:39:44.606Z,97377.53
2023-05-01T12:42:14.510Z,97378.41
2023-05-01T12:44:43.389Z,97385.31
2023-05-01T12:47:12.852Z,97382.91
2023-05-01T12:49:41.463Z,97381.16
2023-05-01T12:52:09.668Z,97379.53
2023-05-01T12:54:39.909Z,97382.31
2023-05-01T12:57:17.871Z,97382.28
2023-05-01T12:59:46.861Z,97377.22
2023-05-01T13:02:17.712Z,97376.19
2023-05-01T13:04:48.999Z,97367.47
2023-05-01T13:07:19.301Z,97368.50
2023-05-01T13:09:55.632Z,97366.41
2023-05-01T13:12:24.838Z,97371.06
2023-05-01T13:14:53.188Z,97372.03
2023-05-01T13:17:26.388Z,97365.31
2023-05-01T13:19:59.712Z,97363.13
2023-05-01T13:22:39.728Z,97358.28
2023-05-01T13:25:25.788Z,97356.41
2023-05-01T13:27:53.964Z,97360.88
2023-05-01T13:30:32.787Z,97353.38
2023-05-01T13:33:01.772Z,97351.75
2023-05-01T13:35:30.674Z,97353.88
2023-05-01T13:37:58.192Z,97349.56
2023-05-01T13:40:27.599Z,97353.72
2023-05-01T13:42:55.128Z,97357.47
2023-05-01T13:45:22.783Z,97352.84
2023-05-01T13:47:51.899Z,97358.38
2023-05-01T13:50:19.740Z,97355.44
2023-05-01T13:52:48.346Z,97346.47
2023-05-01T13:55:17.565Z,97350.25
2023-05-01T13:57:45.088Z,97350.34
2023-05-01T14:00:18.045Z,97343.53
2023-05-01T14:02:48.718Z,97346.00
2023-05-01T14:05:19.030Z,97347.88
2023-05-01T14:07:58.339Z,97344.72
2023-05-01T14:10:28.899Z,97332.53
2023-05-01T14:12:58.613Z,97337.22
2023-05-01T14:15:26.606Z,97327.00
2023-05-01T14:17:54.169Z,97330.31
2023-05-01T14:20:26.841Z,97326.78
2023-05-01T14:22:54.614Z,97322.84
2023-05-01T14:25:30.583Z,97333.31
2023-05-01T14:28:00.944Z,97334.72
2023-05-01T14:30:39.689Z,97331.50
2023-05-01T14:33:11.065Z,97343.84
2023-05-01T14:35:51.997Z,97351.41
2023-05-01T14:38:21.389Z,97345.91
2023-05-01T14:40:49.148Z,97350.84
2023-05-01T14:43:19.520Z,97353.06
2023-05-01T14:45:49.152Z,97358.59
2023-05-01T14:48:33.769Z,97358.97
2023-05-01T14:51:02.114Z,97359.66
2023-05-01T14:53:33.128Z,97367.09
2023-05-01T14:56:00.762Z,97366.75
2023-05-01T14:58:28.363Z,97357.44
2023-05-01T15:00:55.922Z,97363.91
2023-05-01T15:03:23.543Z,97369.81
2023-05-01T15:05:51.192Z,97372.97
2023-05-01T15:08:18.753Z,97369.09
2023-05-01T15:10:46.555Z,97365.19
2023-05-01T15:13:14.181Z,97366.84
2023-05-01T15:15:41.665Z,97369.31
2023-05-01T15:18:09.353Z,97359.56
2023-05-01T15:20:37.646Z,97364.38
2023-05-01T15:23:05.165Z,97357.53
2023-05-01T15:25:32.674Z,97356.38
2023-05-01T15:28:00.167Z,97364.97
2023-05-01T15:30:27.715Z,97366.81
2023-05-01T15:32:55.784Z,97367.91
2023-05-01T15:35:23.783Z,97373.16
2023-05-01T15:37:51.386Z,97372.00
2023-05-01T15:40:19.262Z,97365.19
2023-05-01T15:42:48.060Z,97366.69
2023-05-01T15:45:15.694Z,97373.34
2023-05-01T15:47:43.239Z,97365.94
2023-05-01T15:50:11.955Z,97369.09
2023-05-01T15:52:39.971Z,97369.56
2023-05-01T15:55:07.969Z,97380.03
2023-05-01T15:57:35.671Z,97381.53
2023-05-01T16:00:04.458Z,97384.91
2023-05-01T16:02:32.638Z,97387.50
2023-05-01T16:05:00.796Z,97394.28
2023-05-01T16:07:29.671Z,97407.28
2023-05-01T16:09:58.349Z,97418.63
2023-05-01T16:12:30.009Z,97434.97
2023-05-01T16:14:57.506Z,97426.53
2023-05-01T16:17:25.012Z,97440.94
2023-05-01T16:19:52.883Z,97406.38
2023-05-01T16:22:21.242Z,97407.88
2023-05-01T16:24:49.007Z,97401.00
2023-05-01T16:27:18.387Z,97404.28
2023-05-01T16:29:45.895Z,97400.50
2023-05-01T16:32:16.478Z,97381.03
2023-05-01T16:34:44.469Z,97375.06
2023-05-01T16:37:15.021Z,97382.44
2023-05-01T16:39:42.829Z,97374.19
2023-05-01T16:42:13.182Z,97390.47
2023-05-01T16:44:41.303Z,97399.34
2023-05-01T16:47:11.872Z,97407.41
2023-05-01T16:49:42.188Z,97406.81
2023-05-01T16:52:13.952Z,97412.63
2023-05-01T16:54:41.598Z,97421.31
2023-05-01T16:57:09.172Z,97431.63
2023-05-01T16:59:37.732Z,97418.63
2023-05-01T17:02:06.445Z,97421.75
2023-05-01T17:04:34.131Z,97409.81
2023-05-01T17:07:01.690Z,97414.38
2023-05-01T17:09:29.266Z,97424.09
2023-05-01T17:11:58.875Z,97421.03
2023-05-01T17:14:28.574Z,97424.72
2023-05-01T17:16:58.657Z,97433.88
2023-05-01T17:19:26.388Z,97437.41
2023-05-01T17:21:53.931Z,97439.25
2023-05-01T17:24:22.439Z,97439.31
2023-05-01T17:26:50.034Z,97440.34
2023-05-01T17:29:17.553Z,97447.81
2023-05-01T17:31:45.496Z,97452.13
2023-05-01T17:34:13.135Z,97450.91
2023-05-01T17:36:40.921Z,97448.59
2023-05-01T17:39:08.427Z,97457.66
2023-05-01T17:41:36.074Z,97457.69
2023-05-01T17:44:03.583Z,97455.78
2023-05-01T17:46:31.620Z,97453.91
2023-05-01T17:48:59.212Z,97457.38
2023-05-01T17:51:27.358Z,97467.06
2023-05-01T17:53:54.833Z,97470.19
2023-05-01T17:56:22.517Z,97464.19
2023-05-01T17:58:50.006Z,97465.63
2023-05-01T18:01:17.572Z,97471.38
2023-05-01T18:03:45.189Z,97474.69
2023-05-01T18:06:12.945Z,97469.75
2023-05-01T18:08:41.329Z,97480.50
2023-05-01T18:11:09.417Z,97484.81
2023-05-01T18:13:39.773Z,97484.81
2023-05-01T18:16:07.527Z,97482.75
2023-05-01T18:18:35.135Z,97482.75
2023-05-01T18:21:03.222Z,97482.56
2023-05-01T18:23:30.695Z,97489.19
2023-05-01T18:25:58.587Z,97494.13
2023-05-01T18:28:26.636Z,97498.88
2023-05-01T18:30:54.737Z,97499.50
2023-05-01T18:33:22.484Z,97495.34
2023-05-01T18:35:50.145Z,97499.25
2023-05-01T18:38:17.678Z,97494.94
2023-05-01T18:40:45.371Z,97504.44
2023-05-01T18:43:14.069Z,97498.25
2023-05-01T18:45:41.628Z,97498.03
2023-05-01T18:48:09.231Z,97505.25
2023-05-01T18:50:36.811Z,97506.28
2023-05-01T18:53:04.327Z,97506.09
2023-05-01T18:55:33.033Z,97509.59
2023-05-01T18:58:01.885Z,97512.91
2023-05-01T19:00:30.558Z,97512.28
2023-05-01T19:02:58.112Z,97519.72
2023-05-01T19:05:25.926Z,97522.59
2023-05-01T19:07:55.965Z,97524.22
2023-05-01T19:10:23.498Z,97530.41
2023-05-01T19:12:50.992Z,97532.66
2023-05-01T19:15:18.469Z,97546.47
2023-05-01T19:17:46.108Z,97546.88
2023-05-01T19:20:13.625Z,97546.84
2023-05-01T19:22:41.097Z,97550.34
2023-05-01T19:25:09.378Z,97540.44
2023-05-01T19:27:37.124Z,97540.00
2023-05-01T19:30:06.890Z,97550.53
2023-05-01T19:32:34.729Z,97547.66
2023-05-01T19:35:02.468Z,97547.03
2023-05-01T19:37:30.030Z,97543.50
2023-05-01T19:39:57.745Z,97551.53
2023-05-01T19:42:25.482Z,97552.97
2023-05-01T19:44:53.007Z,97560.59
2023-05-01T19:47:20.918Z,97558.88
2023-05-01T19:49:48.454Z,97553.44
2023-05-01T19:52:15.913Z,97562.53
2023-05-01T19:54:44.660Z,97560.03
2023-05-01T19:57:12.881Z,97563.50
2023-05-01T19:59:41.198Z,97562.66
2023-05-01T20:02:08.978Z,97563.06
2023-05-01T20:04:36.544Z,97569.25
2023-05-01T20:07:04.588Z,97572.53
2023-05-01T20:09:32.259Z,97583.25
2023-05-01T20:11:59.737Z,97594.72
2023-05-01T20:14:27.807Z,97589.97
2023-05-01T20:16:55.600Z,97604.81
2023-05-01T20:19:23.241Z,97607.13
2023-05-01T20:21:50.731Z,97606.53
2023-05-01T20:24:18.297Z,97620.59
2023-05-01T20:26:45.795Z,97616.09
2023-05-01T20:29:13.563Z,97622.84
2023-05-01T20:31:41.079Z,97628.41
2023-05-01T20:34:08.684Z,97632.09
2023-05-01T20:36:36.220Z,97633.78
2023-05-01T20:39:03.900Z,97639.50
2023-05-01T20:41:31.419Z,97640.34
2023-05-01T20:43:58.925Z,97633.31
2023-05-01T20:46:26.734Z,97637.00
2023-05-01T20:48:54.370Z,97636.38
2023-05-01T20:51:22.032Z,97634.91
2023-05-01T20:53:49.660Z,97636.31
2023-05-01T20:56:17.215Z,97640.22
2023-05-01T20:58:44.973Z,97638.94
2023-05-01T21:01:12.537Z,97637.19
2023-05-01T21:03:40.574Z,97647.50
2023-05-01T21:06:08.172Z,97651.59
2023-05-01T21:08:35.729Z,97642.88
2023-05-01T21:11:03.197Z,97648.44
2023-05-01T21:13:31.762Z,97645.13
2023-05-01T21:15:59.633Z,97648.16
2023-05-01T21:18:32.014Z,97654.94
2023-05-01T21:21:02.309Z,97649.75
2023-05-01T21:23:30.294Z,97650.16
2023-05-01T21:25:57.853Z,97650.97
2023-05-01T21:28:25.453Z,97649.28
2023-05-01T21:30:53.831Z,97647.47
2023-05-01T21:33:21.468Z,97651.97
2023-05-01T21:35:49.652Z,97648.66
2023-05-01T21:38:17.149Z,97645.97
2023-05-01T21:40:46.178Z,97650.88
2023-05-01T21:43:13.845Z,97650.88
2023-05-01T21:45:44.867Z,97641.19
2023-05-01T21:48:16.202Z,97646.72
2023-05-01T21:50:47.690Z,97647.72
2023-05-01T21:53:16.285Z,97647.72
2023-05-01T21:55:46.699Z,97659.31
2023-05-01T21:58:14.230Z,97655.13
2023-05-01T22:00:42.027Z,97657.38
2023-05-01T22:03:10.490Z,97655.88
2023-05-01T22:05:40.905Z,97660.25
2023-05-01T22:08:09.065Z,97655.72
2023-05-01T22:10:37.102Z,97655.72
2023-05-01T22:13:06.151Z,97662.91
2023-05-01T22:15:33.725Z,97659.41
2023-05-01T22:18:01.272Z,97654.44
2023-05-01T22:20:28.949Z,97658.56
2023-05-01T22:22:56.458Z,97658.97
2023-05-01T22:25:23.994Z,97667.81
2023-05-01T22:27:51.453Z,97659.97
2023-05-01T22:30:18.953Z,97666.16
2023-05-01T22:32:46.517Z,97661.00
2023-05-01T22:35:14.141Z,97666.53
2023-05-01T22:37:41.620Z,97671.72
2023-05-01T22:40:09.738Z,97679.09
2023-05-01T22:42:37.248Z,97674.75
2023-05-01T22:45:05.355Z,97678.66
2023-05-01T22:47:32.852Z,97677.78
2023-05-01T22:50:01.463Z,97683.78
2023-05-01T22:52:29.316Z,97679.09
2023-05-01T22:54:56.836Z,97688.78
2023-05-01T22:57:24.352Z,97686.94
2023-05-01T22:59:51.926Z,97683.63
2023-05-01T23:02:19.615Z,97688.16
2023-05-01T23:04:47.485Z,97693.69
2023-05-01T23:07:15.294Z,97697.06
2023-05-01T23:09:43.001Z,97695.69
2023-05-01T23:12:23.431Z,97694.69
2023-05-01T23:14:51.202Z,97692.34
2023-05-01T23:17:18.772Z,97698.47
2023-05-01T23:19:46.482Z,97706.59
2023-05-01T23:22:14.237Z,97705.38
2023-05-01T23:24:50.711Z,97714.69
2023-05-01T23:27:19.885Z,97709.81
2023-05-01T23:29:58.378Z,97709.63
2023-05-01T23:32:31.746Z,97703.06
2023-05-01T23:35:19.262Z,97707.91
2023-05-01T23:37:46.761Z,97700.03
2023-05-01T23:40:14.334Z,97706.59
2023-05-01T23:42:41.905Z,97699.41
2023-05-01T23:45:09.633Z,97699.75
2023-05-01T23:47:38.695Z,97700.41
2023-05-01T23:50:07.030Z,97696.72
2023-05-01T23:52:34.618Z,97700.59
2023-05-01T23:55:02.262Z,97697.72
2023-05-01T23:57:29.748Z,97696.72
2023-05-01T23:59:57.420Z,97696.88
